sensor_id;sensor_type;location;lat;lon;timestamp;pressure;altitude;pressure_sealevel;temperature;humidity
19845;BME280;10083;51.038;7.012;2022-11-15T00:02:08;96137.50;;;10.76;75.92
19845;BME280;10083;51.038;7.012;2022-11-15T00:04:57;96220.56;;;10.75;75.92
19845;BME280;10083;51.038;7.012;2022-11-15T00:07:43;96038.91;;;10.81;75.93
19845;BME280;10083;51.038;7.012;2022-11-15T00:10:29;95858.50;;;10.92;75.93
19845;BME280;10083;51.038;7.012;2022-11-15T00:13:16;95780.91;;;10.92;75.93
19845;BME280;10083;51.038;7.012;2022-11-15T00:16:01;95774.56;;;10.93;75.93
19845;BME280;10083;51.038;7.012;2022-11-15T00:18:46;95586.94;;;11.04;75.95
19845;BME280;10083;51.038;7.012;2022-11-15T00:21:33;95582.22;;;11.06;75.94
19845;BME280;10083;51.038;7.012;2022-11-15T00:24:19;95529.53;;;11.07;75.94
19845;BME280;10083;51.038;7.012;2022-11-15T00:27:04;95322.25;;;11.17;75.96
19845;BME280;10083;51.038;7.012;2022-11-15T00:29:51;95366.56;;;11.20;75.96
19845;BME280;10083;51.038;7.012;2022-11-15T00:32:39;95287.78;;;11.22;75.97
19845;BME280;10083;51.038;7.012;2022-11-15T00:35:25;95039.84;;;11.36;75.97
19845;BME280;10083;51.038;7.012;2022-11-15T00:38:12;95303.09;;;11.37;75.97
19845;BME280;10083;51.038;7.012;2022-11-15T00:40:58;95263.22;;;11.42;75.99
19845;BME280;10083;51.038;7.012;2022-11-15T00:43:43;95337.88;;;11.37;75.97
19845;BME280;10083;51.038;7.012;2022-11-15T00:46:29;95208.13;;;11.47;75.98
19845;BME280;10083;51.038;7.012;2022-11-15T00:49:14;95191.88;;;11.49;75.98
19845;BME280;10083;51.038;7.012;2022-11-15T00:52:01;95061.97;;;11.53;75.99
19845;BME280;10083;51.038;7.012;2022-11-15T00:54:48;95178.13;;;11.52;75.97
19845;BME280;10083;51.038;7.012;2022-11-15T00:57:34;95114.97;;;11.57;76.00
19845;BME280;10083;51.038;7.012;2022-11-15T01:00:19;94960.41;;;11.66;76.00
19845;BME280;10083;51.038;7.012;2022-11-15T01:03:07;95015.81;;;11.65;76.01
19845;BME280;10083;51.038;7.012;2022-11-15T01:05:56;95094.31;;;11.66;76.00
19845;BME280;10083;51.038;7.012;2022-11-15T01:08:43;95096.81;;;11.67;76.00
19845;BME280;10083;51.038;7.012;2022-11-15T01:11:33;95176.66;;;11.72;76.01
19845;BME280;10083;51.038;7.012;2022-11-15T01:14:19;95154.56;;;11.70;76.00
19845;BME280;10083;51.038;7.012;2022-11-15T01:17:06;95027.53;;;11.79;76.01
19845;BME280;10083;51.038;7.012;2022-11-15T01:19:51;95081.41;;;11.69;76.00
19845;BME280;10083;51.038;7.012;2022-11-15T01:22:37;95073.16;;;11.71;76.00
19845;BME280;10083;51.038;7.012;2022-11-15T01:25:22;95041.00;;;11.71;76.00
19845;BME280;10083;51.038;7.012;2022-11-15T01:28:09;95111.03;;;11.68;76.00
19845;BME280;10083;51.038;7.012;2022-11-15T01:30:57;95002.22;;;11.67;76.00
19845;BME280;10083;51.038;7.012;2022-11-15T01:33:43;95031.50;;;11.68;76.00
19845;BME280;10083;51.038;7.012;2022-11-15T01:36:28;94950.06;;;11.77;76.02
19845;BME280;10083;51.038;7.012;2022-11-15T01:39:14;95073.38;;;11.84;76.02
19845;BME280;10083;51.038;7.012;2022-11-15T01:42:01;95128.63;;;11.85;76.02
19845;BME280;10083;51.038;7.012;2022-11-15T01:44:49;95038.81;;;11.89;76.03
19845;BME280;10083;51.038;7.012;2022-11-15T01:47:38;95028.09;;;11.89;76.03
19845;BME280;10083;51.038;7.012;2022-11-15T01:50:28;95075.16;;;11.92;76.03
19845;BME280;10083;51.038;7.012;2022-11-15T01:53:16;95081.53;;;11.91;76.02
19845;BME280;10083;51.038;7.012;2022-11-15T01:56:04;95080.03;;;11.88;76.03
19845;BME280;10083;51.038;7.012;2022-11-15T01:58:53;95005.66;;;11.90;76.03
19845;BME280;10083;51.038;7.012;2022-11-15T02:01:42;94878.50;;;11.93;76.03
19845;BME280;10083;51.038;7.012;2022-11-15T02:04:31;94802.13;;;12.03;76.04
19845;BME280;10083;51.038;7.012;2022-11-15T02:07:18;95016.09;;;12.00;76.04
19845;BME280;10083;51.038;7.012;2022-11-15T02:10:08;95167.06;;;11.92;76.02
19845;BME280;10083;51.038;7.012;2022-11-15T02:12:55;95043.75;;;12.00;76.04
19845;BME280;10083;51.038;7.012;2022-11-15T02:15:49;95095.28;;;12.02;76.03
19845;BME280;10083;51.038;7.012;2022-11-15T02:18:41;95208.03;;;12.01;76.04
19845;BME280;10083;51.038;7.012;2022-11-15T02:21:33;95115.34;;;12.06;76.06
19845;BME280;10083;51.038;7.012;2022-11-15T02:28:25;95392.97;;;12.01;76.03
19845;BME280;10083;51.038;7.012;2022-11-15T02:31:26;95331.00;;;12.04;76.03
19845;BME280;10083;51.038;7.012;2022-11-15T02:34:22;95233.66;;;12.03;76.03
19845;BME280;10083;51.038;7.012;2022-11-15T02:37:15;95351.81;;;11.94;76.03
19845;BME280;10083;51.038;7.012;2022-11-15T02:40:07;95248.97;;;11.95;76.04
19845;BME280;10083;51.038;7.012;2022-11-15T02:43:01;95322.19;;;11.95;76.03
19845;BME280;10083;51.038;7.012;2022-11-15T02:46:21;95595.88;;;11.92;76.03
19845;BME280;10083;51.038;7.012;2022-11-15T02:49:33;95622.03;;;11.90;76.03
19845;BME280;10083;51.038;7.012;2022-11-15T02:52:22;95428.25;;;11.90;76.02
19845;BME280;10083;51.038;7.012;2022-11-15T02:55:29;95520.56;;;11.87;76.02
19845;BME280;10083;51.038;7.012;2022-11-15T03:01:55;95626.03;;;11.94;76.04
19845;BME280;10083;51.038;7.012;2022-11-15T03:04:52;95530.06;;;11.90;76.03
19845;BME280;10083;51.038;7.012;2022-11-15T03:07:52;95487.03;;;11.91;76.03
19845;BME280;10083;51.038;7.012;2022-11-15T03:10:47;95437.59;;;11.94;76.03
19845;BME280;10083;51.038;7.012;2022-11-15T03:13:40;95153.25;;;12.03;76.04
19845;BME280;10083;51.038;7.012;2022-11-15T03:16:35;95070.00;;;12.05;76.04
19845;BME280;10083;51.038;7.012;2022-11-15T03:19:37;95028.84;;;12.12;76.05
19845;BME280;10083;51.038;7.012;2022-11-15T03:22:29;95052.22;;;12.04;76.04
19845;BME280;10083;51.038;7.012;2022-11-15T03:25:19;94991.03;;;12.07;76.04
19845;BME280;10083;51.038;7.012;2022-11-15T03:28:07;94874.56;;;12.10;76.05
19845;BME280;10083;51.038;7.012;2022-11-15T03:30:56;94989.75;;;12.03;76.04
19845;BME280;10083;51.038;7.012;2022-11-15T03:33:42;94982.34;;;12.05;76.04
19845;BME280;10083;51.038;7.012;2022-11-15T03:36:32;95063.41;;;12.07;76.04
19845;BME280;10083;51.038;7.012;2022-11-15T03:39:20;95074.13;;;12.07;76.04
19845;BME280;10083;51.038;7.012;2022-11-15T03:42:21;95146.34;;;12.09;76.04
19845;BME280;10083;51.038;7.012;2022-11-15T03:45:13;95082.84;;;12.09;76.04
19845;BME280;10083;51.038;7.012;2022-11-15T03:48:20;95071.34;;;12.15;76.04
19845;BME280;10083;51.038;7.012;2022-11-15T03:51:06;94915.25;;;12.13;76.06
19845;BME280;10083;51.038;7.012;2022-11-15T03:53:52;94800.19;;;12.18;76.05
19845;BME280;10083;51.038;7.012;2022-11-15T03:56:43;94874.47;;;12.18;76.06
19845;BME280;10083;51.038;7.012;2022-11-15T03:59:28;94745.19;;;12.22;76.05
19845;BME280;10083;51.038;7.012;2022-11-15T04:02:14;94808.63;;;12.15;76.05
19845;BME280;10083;51.038;7.012;2022-11-15T04:05:02;94697.56;;;12.24;76.06
19845;BME280;10083;51.038;7.012;2022-11-15T04:07:47;94629.94;;;12.29;76.07
19845;BME280;10083;51.038;7.012;2022-11-15T04:10:33;94588.06;;;12.28;76.06
19845;BME280;10083;51.038;7.012;2022-11-15T04:13:20;94478.78;;;12.30;76.07
19845;BME280;10083;51.038;7.012;2022-11-15T04:16:09;94484.53;;;12.27;76.06
19845;BME280;10083;51.038;7.012;2022-11-15T04:18:55;94617.13;;;12.24;76.06
19845;BME280;10083;51.038;7.012;2022-11-15T04:21:56;94734.31;;;12.31;76.07
19845;BME280;10083;51.038;7.012;2022-11-15T04:24:58;94767.13;;;12.33;76.07
19845;BME280;10083;51.038;7.012;2022-11-15T04:27:44;94516.75;;;12.40;76.07
19845;BME280;10083;51.038;7.012;2022-11-15T04:30:31;94589.19;;;12.47;76.07
19845;BME280;10083;51.038;7.012;2022-11-15T04:33:18;94692.53;;;12.43;76.08
19845;BME280;10083;51.038;7.012;2022-11-15T04:36:04;94607.56;;;12.50;76.09
19845;BME280;10083;51.038;7.012;2022-11-15T04:39:09;94721.84;;;12.44;76.08
19845;BME280;10083;51.038;7.012;2022-11-15T04:41:54;94317.72;;;12.51;76.08
19845;BME280;10083;51.038;7.012;2022-11-15T04:44:41;94356.47;;;12.49;76.08
19845;BME280;10083;51.038;7.012;2022-11-15T04:47:28;94289.66;;;12.54;76.09
19845;BME280;10083;51.038;7.012;2022-11-15T04:50:14;94442.53;;;12.54;76.09
19845;BME280;10083;51.038;7.012;2022-11-15T04:53:00;94432.00;;;12.59;76.09
19845;BME280;10083;51.038;7.012;2022-11-15T04:55:49;94515.81;;;12.61;76.10
19845;BME280;10083;51.038;7.012;2022-11-15T04:58:35;94490.41;;;12.63;76.10
19845;BME280;10083;51.038;7.012;2022-11-15T05:01:21;94540.78;;;12.61;76.10
19845;BME280;10083;51.038;7.012;2022-11-15T05:04:08;94566.31;;;12.57;76.08
19845;BME280;10083;51.038;7.012;2022-11-15T05:07:06;94616.31;;;12.65;76.09
19845;BME280;10083;51.038;7.012;2022-11-15T05:09:51;94621.66;;;12.65;76.11
19845;BME280;10083;51.038;7.012;2022-11-15T05:12:37;94622.03;;;12.62;76.09
19845;BME280;10083;51.038;7.012;2022-11-15T05:15:30;94659.59;;;12.62;76.10
19845;BME280;10083;51.038;7.012;2022-11-15T05:18:15;94488.97;;;12.67;76.10
19845;BME280;10083;51.038;7.012;2022-11-15T05:21:05;94530.69;;;12.70;76.09
19845;BME280;10083;51.038;7.012;2022-11-15T05:23:50;94661.84;;;12.58;76.08
19845;BME280;10083;51.038;7.012;2022-11-15T05:26:36;94494.34;;;12.61;76.10
19845;BME280;10083;51.038;7.012;2022-11-15T05:29:22;94578.47;;;12.53;76.08
19845;BME280;10083;51.038;7.012;2022-11-15T05:32:09;94648.44;;;12.52;76.08
19845;BME280;10083;51.038;7.012;2022-11-15T05:34:56;94877.03;;;12.54;76.09
19845;BME280;10083;51.038;7.012;2022-11-15T05:37:47;94984.78;;;12.57;76.09
19845;BME280;10083;51.038;7.012;2022-11-15T05:40:34;95014.69;;;12.54;76.09
19845;BME280;10083;51.038;7.012;2022-11-15T05:43:20;94921.88;;;12.60;76.10
19845;BME280;10083;51.038;7.012;2022-11-15T05:46:06;94967.09;;;12.63;76.10
19845;BME280;10083;51.038;7.012;2022-11-15T05:48:55;95033.53;;;12.61;76.10
19845;BME280;10083;51.038;7.012;2022-11-15T05:51:42;95054.53;;;12.57;76.09
19845;BME280;10083;51.038;7.012;2022-11-15T05:54:41;95195.06;;;12.56;76.09
19845;BME280;10083;51.038;7.012;2022-11-15T05:57:26;95085.66;;;12.52;76.08
19845;BME280;10083;51.038;7.012;2022-11-15T06:00:14;95143.53;;;12.46;76.07
19845;BME280;10083;51.038;7.012;2022-11-15T06:03:00;95256.00;;;12.33;76.07
19845;BME280;10083;51.038;7.012;2022-11-15T06:05:46;95430.22;;;12.18;76.06
19845;BME280;10083;51.038;7.012;2022-11-15T06:08:33;95754.88;;;12.09;76.04
19845;BME280;10083;51.038;7.012;2022-11-15T06:11:19;95825.22;;;12.03;76.04
19845;BME280;10083;51.038;7.012;2022-11-15T06:14:05;96019.72;;;11.97;76.03
19845;BME280;10083;51.038;7.012;2022-11-15T06:16:51;96221.13;;;11.94;76.03
19845;BME280;10083;51.038;7.012;2022-11-15T06:19:37;96327.81;;;11.91;76.03
19845;BME280;10083;51.038;7.012;2022-11-15T06:22:22;96146.06;;;11.94;76.03
19845;BME280;10083;51.038;7.012;2022-11-15T06:25:09;96148.22;;;11.91;76.03
19845;BME280;10083;51.038;7.012;2022-11-15T06:27:57;96131.13;;;11.92;76.02
19845;BME280;10083;51.038;7.012;2022-11-15T06:30:43;96291.72;;;11.85;76.02
19845;BME280;10083;51.038;7.012;2022-11-15T06:33:29;96296.56;;;11.82;76.02
19845;BME280;10083;51.038;7.012;2022-11-15T06:36:17;96228.72;;;11.81;76.01
19845;BME280;10083;51.038;7.012;2022-11-15T06:39:04;96250.94;;;11.73;76.02
19845;BME280;10083;51.038;7.012;2022-11-15T06:41:50;96294.84;;;11.63;76.00
19845;BME280;10083;51.038;7.012;2022-11-15T06:44:37;96287.50;;;11.65;76.00
19845;BME280;10083;51.038;7.012;2022-11-15T06:47:22;96301.88;;;11.64;76.01
19845;BME280;10083;51.038;7.012;2022-11-15T06:50:09;96582.97;;;11.57;76.00
19845;BME280;10083;51.038;7.012;2022-11-15T06:53:00;96619.22;;;11.52;76.00
19845;BME280;10083;51.038;7.012;2022-11-15T06:55:46;96625.03;;;11.47;76.00
19845;BME280;10083;51.038;7.012;2022-11-15T06:58:33;96672.69;;;11.44;75.98
19845;BME280;10083;51.038;7.012;2022-11-15T07:01:22;96796.75;;;11.34;75.99
19845;BME280;10083;51.038;7.012;2022-11-15T07:04:07;96697.06;;;11.41;76.00
19845;BME280;10083;51.038;7.012;2022-11-15T07:06:52;96602.63;;;11.39;75.99
19845;BME280;10083;51.038;7.012;2022-11-15T07:09:38;96722.84;;;11.32;75.97
19845;BME280;10083;51.038;7.012;2022-11-15T07:12:25;96713.28;;;11.29;75.98
19845;BME280;10083;51.038;7.012;2022-11-15T07:15:10;96668.72;;;11.28;75.98
19845;BME280;10083;51.038;7.012;2022-11-15T07:18:00;96518.75;;;11.28;75.98
19845;BME280;10083;51.038;7.012;2022-11-15T07:20:45;96535.44;;;11.22;75.97
19845;BME280;10083;51.038;7.012;2022-11-15T07:23:39;96495.63;;;11.27;75.99
19845;BME280;10083;51.038;7.012;2022-11-15T07:26:24;96496.66;;;11.26;75.98
19845;BME280;10083;51.038;7.012;2022-11-15T07:29:10;96472.25;;;11.29;75.97
19845;BME280;10083;51.038;7.012;2022-11-15T07:31:55;96513.28;;;11.30;75.97
19845;BME280;10083;51.038;7.012;2022-11-15T07:34:43;96468.00;;;11.27;75.98
19845;BME280;10083;51.038;7.012;2022-11-15T07:37:29;96164.28;;;11.29;75.98
19845;BME280;10083;51.038;7.012;2022-11-15T07:40:15;96112.72;;;11.27;75.98
19845;BME280;10083;51.038;7.012;2022-11-15T07:43:04;96009.66;;;11.31;75.97
19845;BME280;10083;51.038;7.012;2022-11-15T07:45:50;95756.47;;;11.37;75.98
19845;BME280;10083;51.038;7.012;2022-11-15T07:48:38;95732.50;;;11.35;75.98
19845;BME280;10083;51.038;7.012;2022-11-15T07:51:25;95668.78;;;11.39;75.97
19845;BME280;10083;51.038;7.012;2022-11-15T07:54:12;95621.41;;;11.40;75.99
19845;BME280;10083;51.038;7.012;2022-11-15T07:56:57;95588.94;;;11.43;75.98
19845;BME280;10083;51.038;7.012;2022-11-15T07:59:43;95655.53;;;11.38;75.98
19845;BME280;10083;51.038;7.012;2022-11-15T08:02:28;95600.28;;;11.45;75.99
19845;BME280;10083;51.038;7.012;2022-11-15T08:05:15;95413.31;;;11.56;76.00
19845;BME280;10083;51.038;7.012;2022-11-15T08:08:03;95459.31;;;11.60;76.01
19845;BME280;10083;51.038;7.012;2022-11-15T08:10:48;95593.91;;;11.54;76.00
19845;BME280;10083;51.038;7.012;2022-11-15T08:13:43;95677.16;;;11.52;76.00
19845;BME280;10083;51.038;7.012;2022-11-15T08:16:29;95466.88;;;11.56;75.99
19845;BME280;10083;51.038;7.012;2022-11-15T08:19:16;95342.59;;;11.65;76.02
19845;BME280;10083;51.038;7.012;2022-11-15T08:22:01;95338.09;;;11.66;76.01
19845;BME280;10083;51.038;7.012;2022-11-15T08:24:51;95461.31;;;11.66;76.02
19845;BME280;10083;51.038;7.012;2022-11-15T08:27:37;95242.75;;;11.71;76.02
19845;BME280;10083;51.038;7.012;2022-11-15T08:30:23;95154.13;;;11.81;76.01
19845;BME280;10083;51.038;7.012;2022-11-15T08:33:10;95168.53;;;11.80;76.02
19845;BME280;10083;51.038;7.012;2022-11-15T08:35:58;95087.44;;;11.86;76.04
19845;BME280;10083;51.038;7.012;2022-11-15T08:38:44;95121.25;;;11.87;76.02
19845;BME280;10083;51.038;7.012;2022-11-15T08:41:34;95105.66;;;11.91;76.04
19845;BME280;10083;51.038;7.012;2022-11-15T08:44:21;95263.56;;;11.92;76.03
19845;BME280;10083;51.038;7.012;2022-11-15T08:47:11;95143.91;;;11.99;76.03
19845;BME280;10083;51.038;7.012;2022-11-15T08:49:57;95140.31;;;12.07;76.04
19845;BME280;10083;51.038;7.012;2022-11-15T08:52:47;95305.59;;;12.14;76.05
19845;BME280;10083;51.038;7.012;2022-11-15T08:55:37;95043.03;;;12.28;76.06
19845;BME280;10083;51.038;7.012;2022-11-15T08:58:29;95220.75;;;12.36;76.07
19845;BME280;10083;51.038;7.012;2022-11-15T09:01:16;95214.75;;;12.49;76.09
19845;BME280;10083;51.038;7.012;2022-11-15T09:04:04;97103.91;;;12.55;76.10
19845;BME280;10083;51.038;7.012;2022-11-15T09:06:50;99211.06;;;12.60;76.08
19845;BME280;10083;51.038;7.012;2022-11-15T09:09:39;100270.75;;;12.68;76.11
19845;BME280;10083;51.038;7.012;2022-11-15T09:12:29;100812.59;;;12.68;76.10
19845;BME280;10083;51.038;7.012;2022-11-15T09:15:16;100842.94;;;12.72;76.11
19845;BME280;10083;51.038;7.012;2022-11-15T09:18:03;100369.72;;;12.79;76.11
19845;BME280;10083;51.038;7.012;2022-11-15T09:20:49;99920.66;;;12.87;76.11
19845;BME280;10083;51.038;7.012;2022-11-15T09:23:34;99798.00;;;12.86;76.12
19845;BME280;10083;51.038;7.012;2022-11-15T09:26:20;99380.78;;;12.99;76.13
19845;BME280;10083;51.038;7.012;2022-11-15T09:29:23;99038.88;;;13.24;76.15
19845;BME280;10083;51.038;7.012;2022-11-15T09:32:10;98454.91;;;13.46;76.17
19845;BME280;10083;51.038;7.012;2022-11-15T09:35:03;98429.06;;;13.56;76.17
19845;BME280;10083;51.038;7.012;2022-11-15T09:37:49;98269.22;;;13.71;76.19
19845;BME280;10083;51.038;7.012;2022-11-15T09:40:40;98292.88;;;13.79;76.20
19845;BME280;10083;51.038;7.012;2022-11-15T09:43:39;98537.25;;;13.72;76.19
19845;BME280;10083;51.038;7.012;2022-11-15T09:46:36;98759.25;;;13.78;76.20
19845;BME280;10083;51.038;7.012;2022-11-15T09:49:29;99227.28;;;13.65;76.19
19845;BME280;10083;51.038;7.012;2022-11-15T09:52:23;99393.69;;;13.71;76.19
19845;BME280;10083;51.038;7.012;2022-11-15T09:54:51;99165.41;;;13.79;76.19
19845;BME280;10083;51.038;7.012;2022-11-15T09:57:21;99396.50;;;13.70;76.19
19845;BME280;10083;51.038;7.012;2022-11-15T10:00:02;99626.75;;;13.74;76.18
19845;BME280;10083;51.038;7.012;2022-11-15T10:02:49;99773.41;;;13.82;76.20
19845;BME280;10083;51.038;7.012;2022-11-15T10:05:28;99731.00;;;13.70;76.19
19845;BME280;10083;51.038;7.012;2022-11-15T10:08:05;98990.78;;;13.89;76.21
19845;BME280;10083;51.038;7.012;2022-11-15T10:10:37;99228.44;;;13.75;76.19
19845;BME280;10083;51.038;7.012;2022-11-15T10:13:09;99349.94;;;13.83;76.20
19845;BME280;10083;51.038;7.012;2022-11-15T10:15:42;99496.28;;;14.12;76.23
19845;BME280;10083;51.038;7.012;2022-11-15T10:18:16;100316.38;;;13.97;76.21
19845;BME280;10083;51.038;7.012;2022-11-15T10:20:52;100409.03;;;14.14;76.22
19845;BME280;10083;51.038;7.012;2022-11-15T10:23:41;100791.31;;;14.17;76.22
19845;BME280;10083;51.038;7.012;2022-11-15T10:26:16;100732.88;;;14.19;76.23
19845;BME280;10083;51.038;7.012;2022-11-15T10:28:43;101236.69;;;14.16;76.22
19845;BME280;10083;51.038;7.012;2022-11-15T10:31:22;101417.69;;;14.30;76.25
19845;BME280;10083;51.038;7.012;2022-11-15T10:33:49;101332.88;;;14.43;76.25
19845;BME280;10083;51.038;7.012;2022-11-15T10:36:21;101314.78;;;14.48;76.26
19845;BME280;10083;51.038;7.012;2022-11-15T10:38:58;101497.78;;;14.57;76.26
19845;BME280;10083;51.038;7.012;2022-11-15T10:41:37;101852.88;;;14.51;76.26
19845;BME280;10083;51.038;7.012;2022-11-15T10:44:12;102107.84;;;14.62;76.26
19845;BME280;10083;51.038;7.012;2022-11-15T10:47:07;102754.97;;;14.67;76.28
19845;BME280;10083;51.038;7.012;2022-11-15T10:49:54;103127.16;;;14.62;76.27
19845;BME280;10083;51.038;7.012;2022-11-15T10:52:56;103488.69;;;14.96;76.28
19845;BME280;10083;51.038;7.012;2022-11-15T10:55:32;103649.78;;;15.09;76.31
19845;BME280;10083;51.038;7.012;2022-11-15T10:58:04;104068.34;;;15.24;76.31
19845;BME280;10083;51.038;7.012;2022-11-15T11:00:42;104919.03;;;15.24;76.32
19845;BME280;10083;51.038;7.012;2022-11-15T11:03:28;105881.16;;;14.91;76.29
19845;BME280;10083;51.038;7.012;2022-11-15T11:06:08;105792.34;;;15.23;76.32
19845;BME280;10083;51.038;7.012;2022-11-15T11:08:37;105791.81;;;15.55;76.34
19845;BME280;10083;51.038;7.012;2022-11-15T11:11:06;106673.13;;;15.40;76.33
19845;BME280;10083;51.038;7.012;2022-11-15T11:13:35;106733.94;;;15.82;76.37
19845;BME280;10083;51.038;7.012;2022-11-15T11:19:23;108867.03;;;15.66;76.35
19845;BME280;10083;51.038;7.012;2022-11-15T11:21:59;109197.50;;;15.80;76.36
19845;BME280;10083;51.038;7.012;2022-11-15T11:24:52;109446.81;;;15.94;76.38
19845;BME280;10083;51.038;7.012;2022-11-15T11:27:42;110462.91;;;15.77;76.36
19845;BME280;10083;51.038;7.012;2022-11-15T11:30:17;110578.84;;;15.97;76.38
19845;BME280;10083;51.038;7.012;2022-11-15T11:32:56;111446.22;;;15.74;76.38
19845;BME280;10083;51.038;7.012;2022-11-15T11:35:29;111388.88;;;16.21;76.41
19845;BME280;10083;51.038;7.012;2022-11-15T11:38:10;112126.16;;;16.10;76.39
19845;BME280;10083;51.038;7.012;2022-11-15T11:40:45;113790.66;;;15.53;76.35
19845;BME280;10083;51.038;7.012;2022-11-15T11:43:24;114302.94;;;15.51;76.36
19845;BME280;10083;51.038;7.012;2022-11-15T11:46:08;114667.34;;;15.64;76.37
19845;BME280;10083;51.038;7.012;2022-11-15T11:48:50;115057.59;;;15.89;76.39
19845;BME280;10083;51.038;7.012;2022-11-15T11:54:48;114991.50;;;17.22;76.50
19845;BME280;10083;51.038;7.012;2022-11-15T11:57:25;115641.13;;;17.29;76.52
19845;BME280;10083;51.038;7.012;2022-11-15T12:00:00;116131.09;;;17.47;76.53
19845;BME280;10083;51.038;7.012;2022-11-15T12:02:43;115950.72;;;18.22;76.60
19845;BME280;10083;51.038;7.012;2022-11-15T12:05:20;116674.06;;;18.46;76.63
19845;BME280;10083;51.038;7.012;2022-11-15T12:07:58;118016.69;;;18.22;76.60
19845;BME280;10083;51.038;7.012;2022-11-15T12:10:32;118381.38;;;18.57;76.65
19845;BME280;10083;51.038;7.012;2022-11-15T12:13:05;118506.31;;;19.30;76.72
19845;BME280;10083;51.038;7.012;2022-11-15T12:15:41;119612.81;;;19.26;76.74
19845;BME280;10083;51.038;7.012;2022-11-15T12:18:19;119450.34;;;20.03;76.81
19845;BME280;10083;51.038;7.012;2022-11-15T12:20:53;119491.63;;;20.81;76.89
19845;BME280;10083;51.038;7.012;2022-11-15T12:23:27;121946.25;;;19.10;76.83
19845;BME280;10083;51.038;7.012;2022-11-15T12:26:01;121624.06;;;19.78;76.95
19845;BME280;10083;51.038;7.012;2022-11-15T12:28:40;121883.59;;;19.36;77.03
19845;BME280;10083;51.038;7.012;2022-11-15T12:31:11;122086.22;;;18.46;77.25
19845;BME280;10083;51.038;7.012;2022-11-15T12:33:44;121663.63;;;18.40;77.50
19845;BME280;10083;51.038;7.012;2022-11-15T12:36:35;121390.06;;;17.20;78.12
19845;BME280;10083;51.038;7.012;2022-11-15T12:39:04;120747.47;;;17.21;78.56
19845;BME280;10083;51.038;7.012;2022-11-15T12:41:34;120017.25;;;18.64;78.44
19845;BME280;10083;51.038;7.012;2022-11-15T12:44:04;119686.47;;;17.45;79.73
19845;BME280;10083;51.038;7.012;2022-11-15T12:49:54;118460.66;;;17.99;80.79
19845;BME280;10083;51.038;7.012;2022-11-15T12:52:21;117804.47;;;17.65;82.15
19845;BME280;10083;51.038;7.012;2022-11-15T12:55:00;117136.19;;;17.22;83.75
19845;BME280;10083;51.038;7.012;2022-11-15T12:57:39;116383.28;;;16.63;85.97
19845;BME280;10083;51.038;7.012;2022-11-15T13:03:22;115224.50;;;16.40;88.75
19845;BME280;10083;51.038;7.012;2022-11-15T13:09:49;114287.13;;;16.31;90.13
19845;BME280;10083;51.038;7.012;2022-11-15T13:15:55;113557.66;;;16.42;90.96
19845;BME280;10083;51.038;7.012;2022-11-15T13:18:36;113059.94;;;15.97;92.96
19845;BME280;10083;51.038;7.012;2022-11-15T13:21:20;112719.19;;;15.70;93.93
19845;BME280;10083;51.038;7.012;2022-11-15T13:24:12;112457.03;;;15.50;93.99
19845;BME280;10083;51.038;7.012;2022-11-15T13:26:40;112266.50;;;15.42;93.62
19845;BME280;10083;51.038;7.012;2022-11-15T13:29:16;112134.53;;;15.34;92.92
19845;BME280;10083;51.038;7.012;2022-11-15T13:31:44;112020.25;;;15.29;92.42
19845;BME280;10083;51.038;7.012;2022-11-15T13:37:48;111886.34;;;15.13;90.69
19845;BME280;10083;51.038;7.012;2022-11-15T13:40:21;111784.84;;;15.10;90.39
19845;BME280;10083;51.038;7.012;2022-11-15T13:42:49;111717.19;;;15.03;90.15
19845;BME280;10083;51.038;7.012;2022-11-15T13:45:18;111680.91;;;15.08;89.70
19845;BME280;10083;51.038;7.012;2022-11-15T13:47:51;111616.72;;;15.00;89.37
19845;BME280;10083;51.038;7.012;2022-11-15T13:50:20;111522.00;;;14.85;89.33
19845;BME280;10083;51.038;7.012;2022-11-15T13:52:51;111516.97;;;14.88;88.39
19845;BME280;10083;51.038;7.012;2022-11-15T13:55:21;111497.28;;;14.89;87.88
19845;BME280;10083;51.038;7.012;2022-11-15T13:57:51;111443.97;;;14.81;87.77
19845;BME280;10083;51.038;7.012;2022-11-15T14:00:27;111431.19;;;14.80;87.24
19845;BME280;10083;51.038;7.012;2022-11-15T14:02:57;111370.16;;;14.68;87.07
19845;BME280;10083;51.038;7.012;2022-11-15T14:05:32;111358.53;;;14.62;86.71
19845;BME280;10083;51.038;7.012;2022-11-15T14:08:02;111365.13;;;14.71;86.25
19845;BME280;10083;51.038;7.012;2022-11-15T14:10:31;111317.06;;;14.62;86.06
19845;BME280;10083;51.038;7.012;2022-11-15T14:13:00;111278.81;;;14.59;85.73
19845;BME280;10083;51.038;7.012;2022-11-15T14:15:30;111266.63;;;14.62;85.44
19845;BME280;10083;51.038;7.012;2022-11-15T14:17:57;111240.59;;;14.63;85.13
19845;BME280;10083;51.038;7.012;2022-11-15T14:20:35;111220.69;;;14.62;84.75
19845;BME280;10083;51.038;7.012;2022-11-15T14:23:18;111174.00;;;14.56;84.49
19845;BME280;10083;51.038;7.012;2022-11-15T14:25:52;111155.47;;;14.52;84.15
19845;BME280;10083;51.038;7.012;2022-11-15T14:28:29;111108.97;;;14.47;83.98
19845;BME280;10083;51.038;7.012;2022-11-15T14:30:59;111057.41;;;14.46;83.72
19845;BME280;10083;51.038;7.012;2022-11-15T14:33:29;111019.03;;;14.41;83.55
19845;BME280;10083;51.038;7.012;2022-11-15T14:35:58;110974.25;;;14.36;83.31
19845;BME280;10083;51.038;7.012;2022-11-15T14:38:30;110948.97;;;14.29;83.12
19845;BME280;10083;51.038;7.012;2022-11-15T14:40:57;110910.22;;;14.35;82.82
19845;BME280;10083;51.038;7.012;2022-11-15T14:43:24;110856.19;;;14.42;82.54
19845;BME280;10083;51.038;7.012;2022-11-15T14:45:53;110821.63;;;14.33;82.38
19845;BME280;10083;51.038;7.012;2022-11-15T14:48:21;110776.50;;;14.39;82.15
19845;BME280;10083;51.038;7.012;2022-11-15T14:50:48;110756.03;;;14.34;81.96
19845;BME280;10083;51.038;7.012;2022-11-15T14:53:17;110703.97;;;14.28;81.81
19845;BME280;10083;51.038;7.012;2022-11-15T14:55:46;110679.88;;;14.29;81.58
19845;BME280;10083;51.038;7.012;2022-11-15T14:58:13;110635.13;;;14.24;81.42